sensor_id;sensor_type;location;lat;lon;timestamp;temperature;humidity
7658;DHT22;8462;53.156;8.220;2023-06-04T00:02:21;14.40;91.50
7658;DHT22;8462;53.156;8.220;2023-06-04T00:04:48;14.40;91.50
7658;DHT22;8462;53.156;8.220;2023-06-04T00:07:15;14.40;91.60
7658;DHT22;8462;53.156;8.220;2023-06-04T00:09:42;14.40;91.60
7658;DHT22;8462;53.156;8.220;2023-06-04T00:12:09;14.40;91.50
7658;DHT22;8462;53.156;8.220;2023-06-04T00:14:36;14.40;91.90
7658;DHT22;8462;53.156;8.220;2023-06-04T00:17:04;14.40;91.40
7658;DHT22;8462;53.156;8.220;2023-06-04T00:19:32;14.40;91.50
7658;DHT22;8462;53.156;8.220;2023-06-04T00:22:00;14.40;91.40
7658;DHT22;8462;53.156;8.220;2023-06-04T00:24:27;14.40;91.40
7658;DHT22;8462;53.156;8.220;2023-06-04T00:26:54;14.40;91.40
7658;DHT22;8462;53.156;8.220;2023-06-04T00:29:21;14.40;91.50
7658;DHT22;8462;53.156;8.220;2023-06-04T00:31:48;14.40;91.60
7658;DHT22;8462;53.156;8.220;2023-06-04T00:34:16;14.30;91.60
7658;DHT22;8462;53.156;8.220;2023-06-04T00:36:44;14.30;91.60
7658;DHT22;8462;53.156;8.220;2023-06-04T00:39:11;14.30;91.60
7658;DHT22;8462;53.156;8.220;2023-06-04T00:41:39;14.30;91.50
7658;DHT22;8462;53.156;8.220;2023-06-04T00:44:06;14.30;91.60
7658;DHT22;8462;53.156;8.220;2023-06-04T00:46:33;14.30;91.70
7658;DHT22;8462;53.156;8.220;2023-06-04T00:49:01;14.30;91.70
7658;DHT22;8462;53.156;8.220;2023-06-04T00:51:30;14.20;91.60
7658;DHT22;8462;53.156;8.220;2023-06-04T00:53:59;14.20;91.70
7658;DHT22;8462;53.156;8.220;2023-06-04T00:56:34;14.20;91.70
7658;DHT22;8462;53.156;8.220;2023-06-04T00:59:01;14.20;91.80
7658;DHT22;8462;53.156;8.220;2023-06-04T01:01:39;14.20;91.80
7658;DHT22;8462;53.156;8.220;2023-06-04T01:04:16;14.20;92.00
7658;DHT22;8462;53.156;8.220;2023-06-04T01:06:49;14.10;92.00
7658;DHT22;8462;53.156;8.220;2023-06-04T01:09:21;14.10;92.10
7658;DHT22;8462;53.156;8.220;2023-06-04T01:11:49;14.00;92.20
7658;DHT22;8462;53.156;8.220;2023-06-04T01:14:16;14.00;92.30
7658;DHT22;8462;53.156;8.220;2023-06-04T01:16:49;14.00;92.30
7658;DHT22;8462;53.156;8.220;2023-06-04T01:19:33;14.00;92.40
7658;DHT22;8462;53.156;8.220;2023-06-04T01:22:13;14.00;92.40
7658;DHT22;8462;53.156;8.220;2023-06-04T01:24:50;14.00;92.40
7658;DHT22;8462;53.156;8.220;2023-06-04T01:27:21;14.00;92.40
7658;DHT22;8462;53.156;8.220;2023-06-04T01:29:49;14.00;92.50
7658;DHT22;8462;53.156;8.220;2023-06-04T01:32:20;14.00;92.70
7658;DHT22;8462;53.156;8.220;2023-06-04T01:34:47;13.90;92.70
7658;DHT22;8462;53.156;8.220;2023-06-04T01:37:14;13.90;92.60
7658;DHT22;8462;53.156;8.220;2023-06-04T01:39:42;13.90;92.60
7658;DHT22;8462;53.156;8.220;2023-06-04T01:42:10;13.90;92.50
7658;DHT22;8462;53.156;8.220;2023-06-04T01:44:37;13.90;92.60
7658;DHT22;8462;53.156;8.220;2023-06-04T01:47:04;13.80;92.60
7658;DHT22;8462;53.156;8.220;2023-06-04T01:49:31;13.80;92.70
7658;DHT22;8462;53.156;8.220;2023-06-04T01:51:58;13.80;93.30
7658;DHT22;8462;53.156;8.220;2023-06-04T01:54:25;13.80;93.00
7658;DHT22;8462;53.156;8.220;2023-06-04T01:56:52;13.80;92.90
7658;DHT22;8462;53.156;8.220;2023-06-04T01:59:20;13.80;92.80
7658;DHT22;8462;53.156;8.220;2023-06-04T02:01:47;13.70;92.80
7658;DHT22;8462;53.156;8.220;2023-06-04T02:04:14;13.70;92.90
7658;DHT22;8462;53.156;8.220;2023-06-04T02:06:41;13.60;93.00
7658;DHT22;8462;53.156;8.220;2023-06-04T02:09:08;13.60;93.10
7658;DHT22;8462;53.156;8.220;2023-06-04T02:11:35;13.60;93.50
7658;DHT22;8462;53.156;8.220;2023-06-04T02:14:02;13.60;93.40
7658;DHT22;8462;53.156;8.220;2023-06-04T02:16:30;13.50;93.50
7658;DHT22;8462;53.156;8.220;2023-06-04T02:18:58;13.50;93.60
7658;DHT22;8462;53.156;8.220;2023-06-04T02:21:26;13.50;93.80
7658;DHT22;8462;53.156;8.220;2023-06-04T02:23:53;13.40;93.90
7658;DHT22;8462;53.156;8.220;2023-06-04T02:26:21;13.40;93.90
7658;DHT22;8462;53.156;8.220;2023-06-04T02:28:49;13.40;94.10
7658;DHT22;8462;53.156;8.220;2023-06-04T02:31:15;13.30;94.10
7658;DHT22;8462;53.156;8.220;2023-06-04T02:33:44;13.30;94.30
7658;DHT22;8462;53.156;8.220;2023-06-04T02:36:11;13.30;94.40
7658;DHT22;8462;53.156;8.220;2023-06-04T02:38:38;13.20;94.40
7658;DHT22;8462;53.156;8.220;2023-06-04T02:41:06;13.30;94.40
7658;DHT22;8462;53.156;8.220;2023-06-04T02:43:33;13.20;94.40
7658;DHT22;8462;53.156;8.220;2023-06-04T02:46:00;13.20;94.50
7658;DHT22;8462;53.156;8.220;2023-06-04T02:48:27;13.20;94.60
7658;DHT22;8462;53.156;8.220;2023-06-04T02:50:55;13.20;94.70
7658;DHT22;8462;53.156;8.220;2023-06-04T02:53:22;13.20;94.70
7658;DHT22;8462;53.156;8.220;2023-06-04T02:55:49;13.10;94.70
7658;DHT22;8462;53.156;8.220;2023-06-04T02:58:17;13.10;94.80
7658;DHT22;8462;53.156;8.220;2023-06-04T03:00:44;13.20;94.80
7658;DHT22;8462;53.156;8.220;2023-06-04T03:03:11;13.20;94.80
7658;DHT22;8462;53.156;8.220;2023-06-04T03:05:38;13.20;94.90
7658;DHT22;8462;53.156;8.220;2023-06-04T03:08:06;13.20;94.80
7658;DHT22;8462;53.156;8.220;2023-06-04T03:10:33;13.20;94.80
7658;DHT22;8462;53.156;8.220;2023-06-04T03:13:00;13.20;94.80
7658;DHT22;8462;53.156;8.220;2023-06-04T03:15:27;13.20;95.00
7658;DHT22;8462;53.156;8.220;2023-06-04T03:17:54;13.20;95.00
7658;DHT22;8462;53.156;8.220;2023-06-04T03:20:21;13.10;95.00
7658;DHT22;8462;53.156;8.220;2023-06-04T03:22:49;13.20;95.20
7658;DHT22;8462;53.156;8.220;2023-06-04T03:25:18;13.20;95.00
7658;DHT22;8462;53.156;8.220;2023-06-04T03:27:46;13.20;95.00
7658;DHT22;8462;53.156;8.220;2023-06-04T03:30:13;13.20;94.90
7658;DHT22;8462;53.156;8.220;2023-06-04T03:32:53;13.20;95.10
7658;DHT22;8462;53.156;8.220;2023-06-04T03:35:20;13.20;95.20
7658;DHT22;8462;53.156;8.220;2023-06-04T03:37:47;13.30;95.10
7658;DHT22;8462;53.156;8.220;2023-06-04T03:40:14;13.30;95.10
7658;DHT22;8462;53.156;8.220;2023-06-04T03:42:45;13.30;95.00
7658;DHT22;8462;53.156;8.220;2023-06-04T03:45:13;13.40;94.90
7658;DHT22;8462;53.156;8.220;2023-06-04T03:47:40;13.40;94.80
7658;DHT22;8462;53.156;8.220;2023-06-04T03:50:09;13.40;94.80
7658;DHT22;8462;53.156;8.220;2023-06-04T03:52:36;13.40;94.80
7658;DHT22;8462;53.156;8.220;2023-06-04T03:55:05;13.40;94.90
7658;DHT22;8462;53.156;8.220;2023-06-04T03:57:32;13.50;95.00
7658;DHT22;8462;53.156;8.220;2023-06-04T04:00:01;13.50;95.00
7658;DHT22;8462;53.156;8.220;2023-06-04T04:02:39;13.50;95.00
7658;DHT22;8462;53.156;8.220;2023-06-04T04:05:08;13.60;95.10
7658;DHT22;8462;53.156;8.220;2023-06-04T04:07:37;13.60;95.10
7658;DHT22;8462;53.156;8.220;2023-06-04T04:10:05;13.60;95.10
7658;DHT22;8462;53.156;8.220;2023-06-04T04:12:32;13.70;95.00
7658;DHT22;8462;53.156;8.220;2023-06-04T04:15:01;13.80;95.10
7658;DHT22;8462;53.156;8.220;2023-06-04T04:17:28;13.90;95.10
7658;DHT22;8462;53.156;8.220;2023-06-04T04:19:55;13.90;95.00
7658;DHT22;8462;53.156;8.220;2023-06-04T04:22:22;14.00;94.90
7658;DHT22;8462;53.156;8.220;2023-06-04T04:24:49;14.00;94.90
7658;DHT22;8462;53.156;8.220;2023-06-04T04:27:17;14.10;94.80
7658;DHT22;8462;53.156;8.220;2023-06-04T04:29:45;14.20;94.90
7658;DHT22;8462;53.156;8.220;2023-06-04T04:32:14;14.30;94.70
7658;DHT22;8462;53.156;8.220;2023-06-04T04:34:52;14.30;94.50
7658;DHT22;8462;53.156;8.220;2023-06-04T04:37:24;14.40;94.30
7658;DHT22;8462;53.156;8.220;2023-06-04T04:39:54;14.50;94.10
7658;DHT22;8462;53.156;8.220;2023-06-04T04:42:23;14.60;93.90
7658;DHT22;8462;53.156;8.220;2023-06-04T04:44:50;14.80;93.90
7658;DHT22;8462;53.156;8.220;2023-06-04T04:47:21;14.90;93.50
7658;DHT22;8462;53.156;8.220;2023-06-04T04:49:48;15.20;93.50
7658;DHT22;8462;53.156;8.220;2023-06-04T04:52:16;15.30;93.10
7658;DHT22;8462;53.156;8.220;2023-06-04T04:54:43;15.50;92.10
7658;DHT22;8462;53.156;8.220;2023-06-04T04:57:10;15.70;92.00
7658;DHT22;8462;53.156;8.220;2023-06-04T04:59:37;15.80;91.90
7658;DHT22;8462;53.156;8.220;2023-06-04T05:02:05;16.10;91.40
7658;DHT22;8462;53.156;8.220;2023-06-04T05:04:34;16.50;91.70
7658;DHT22;8462;53.156;8.220;2023-06-04T05:07:01;17.40;90.10
7658;DHT22;8462;53.156;8.220;2023-06-04T05:09:28;18.40;87.70
7658;DHT22;8462;53.156;8.220;2023-06-04T05:11:54;19.60;80.90
7658;DHT22;8462;53.156;8.220;2023-06-04T05:14:21;20.40;78.30
7658;DHT22;8462;53.156;8.220;2023-06-04T05:16:49;20.90;75.50
7658;DHT22;8462;53.156;8.220;2023-06-04T05:19:16;21.60;73.70
7658;DHT22;8462;53.156;8.220;2023-06-04T05:21:45;22.10;70.00
7658;DHT22;8462;53.156;8.220;2023-06-04T05:24:14;22.70;67.50
7658;DHT22;8462;53.156;8.220;2023-06-04T05:26:41;23.00;65.40
7658;DHT22;8462;53.156;8.220;2023-06-04T05:29:14;23.50;64.70
7658;DHT22;8462;53.156;8.220;2023-06-04T05:31:42;24.10;62.00
7658;DHT22;8462;53.156;8.220;2023-06-04T05:34:12;24.30;60.50
7658;DHT22;8462;53.156;8.220;2023-06-04T05:36:42;24.60;58.70
7658;DHT22;8462;53.156;8.220;2023-06-04T05:39:10;24.90;58.30
7658;DHT22;8462;53.156;8.220;2023-06-04T05:41:46;25.20;56.50
7658;DHT22;8462;53.156;8.220;2023-06-04T05:44:13;25.20;55.20
7658;DHT22;8462;53.156;8.220;2023-06-04T05:46:41;25.30;55.80
7658;DHT22;8462;53.156;8.220;2023-06-04T05:49:09;25.60;54.30
7658;DHT22;8462;53.156;8.220;2023-06-04T05:51:36;25.70;52.90
7658;DHT22;8462;53.156;8.220;2023-06-04T05:54:03;25.40;53.80
7658;DHT22;8462;53.156;8.220;2023-06-04T05:56:35;25.50;53.30
7658;DHT22;8462;53.156;8.220;2023-06-04T05:59:02;25.40;53.30
7658;DHT22;8462;53.156;8.220;2023-06-04T06:01:29;25.40;53.90
7658;DHT22;8462;53.156;8.220;2023-06-04T06:03:55;25.90;51.70
7658;DHT22;8462;53.156;8.220;2023-06-04T06:06:25;25.80;50.00
7658;DHT22;8462;53.156;8.220;2023-06-04T06:08:52;25.60;50.80
7658;DHT22;8462;53.156;8.220;2023-06-04T06:11:19;25.50;51.50
7658;DHT22;8462;53.156;8.220;2023-06-04T06:13:48;25.60;50.60
7658;DHT22;8462;53.156;8.220;2023-06-04T06:16:15;25.70;50.30
7658;DHT22;8462;53.156;8.220;2023-06-04T06:18:44;25.70;50.20
7658;DHT22;8462;53.156;8.220;2023-06-04T06:21:11;25.80;50.60
7658;DHT22;8462;53.156;8.220;2023-06-04T06:23:38;25.90;49.70
7658;DHT22;8462;53.156;8.220;2023-06-04T06:26:06;26.00;50.50
7658;DHT22;8462;53.156;8.220;2023-06-04T06:28:38;25.90;48.00
7658;DHT22;8462;53.156;8.220;2023-06-04T06:31:07;25.60;49.30
7658;DHT22;8462;53.156;8.220;2023-06-04T06:33:34;25.60;49.40
7658;DHT22;8462;53.156;8.220;2023-06-04T06:36:06;25.60;49.40
7658;DHT22;8462;53.156;8.220;2023-06-04T06:38:33;25.80;47.90
7658;DHT22;8462;53.156;8.220;2023-06-04T06:41:00;25.70;47.50
7658;DHT22;8462;53.156;8.220;2023-06-04T06:43:27;25.50;47.90
7658;DHT22;8462;53.156;8.220;2023-06-04T06:45:54;25.60;47.80
7658;DHT22;8462;53.156;8.220;2023-06-04T06:48:22;25.70;47.90
7658;DHT22;8462;53.156;8.220;2023-06-04T06:50:49;25.70;46.70
7658;DHT22;8462;53.156;8.220;2023-06-04T06:53:16;25.70;47.40
7658;DHT22;8462;53.156;8.220;2023-06-04T06:55:43;25.80;46.80
7658;DHT22;8462;53.156;8.220;2023-06-04T06:58:09;26.00;45.30
7658;DHT22;8462;53.156;8.220;2023-06-04T07:00:36;26.20;46.10
7658;DHT22;8462;53.156;8.220;2023-06-04T07:03:03;26.30;45.90
7658;DHT22;8462;53.156;8.220;2023-06-04T07:05:31;26.50;46.00
7658;DHT22;8462;53.156;8.220;2023-06-04T07:07:58;26.60;45.90
7658;DHT22;8462;53.156;8.220;2023-06-04T07:10:26;26.60;45.60
7658;DHT22;8462;53.156;8.220;2023-06-04T07:12:53;26.70;45.80
7658;DHT22;8462;53.156;8.220;2023-06-04T07:15:20;26.90;44.80
7658;DHT22;8462;53.156;8.220;2023-06-04T07:17:47;27.00;44.50
7658;DHT22;8462;53.156;8.220;2023-06-04T07:20:13;27.00;44.70
7658;DHT22;8462;53.156;8.220;2023-06-04T07:22:42;26.90;44.50
7658;DHT22;8462;53.156;8.220;2023-06-04T07:25:09;26.80;44.90
7658;DHT22;8462;53.156;8.220;2023-06-04T07:27:36;26.90;43.60
7658;DHT22;8462;53.156;8.220;2023-06-04T07:30:05;26.70;44.40
7658;DHT22;8462;53.156;8.220;2023-06-04T07:32:33;26.60;44.60
7658;DHT22;8462;53.156;8.220;2023-06-04T07:35:00;26.50;45.50
7658;DHT22;8462;53.156;8.220;2023-06-04T07:37:26;26.60;45.00
7658;DHT22;8462;53.156;8.220;2023-06-04T07:39:55;26.50;43.70
7658;DHT22;8462;53.156;8.220;2023-06-04T07:42:21;26.40;43.90
7658;DHT22;8462;53.156;8.220;2023-06-04T07:44:48;26.50;44.60
7658;DHT22;8462;53.156;8.220;2023-06-04T07:47:15;26.50;45.30
7658;DHT22;8462;53.156;8.220;2023-06-04T07:49:42;26.20;43.80
7658;DHT22;8462;53.156;8.220;2023-06-04T07:52:09;25.60;45.30
7658;DHT22;8462;53.156;8.220;2023-06-04T07:54:36;24.80;46.70
7658;DHT22;8462;53.156;8.220;2023-06-04T07:57:04;24.10;48.30
7658;DHT22;8462;53.156;8.220;2023-06-04T07:59:31;23.40;49.30
7658;DHT22;8462;53.156;8.220;2023-06-04T08:01:58;22.80;50.10
7658;DHT22;8462;53.156;8.220;2023-06-04T08:04:25;22.40;50.90
7658;DHT22;8462;53.156;8.220;2023-06-04T08:06:54;22.10;51.50
7658;DHT22;8462;53.156;8.220;2023-06-04T08:09:21;21.90;52.20
7658;DHT22;8462;53.156;8.220;2023-06-04T08:11:49;21.70;53.10
7658;DHT22;8462;53.156;8.220;2023-06-04T08:14:17;21.70;54.60
7658;DHT22;8462;53.156;8.220;2023-06-04T08:16:45;21.70;55.50
7658;DHT22;8462;53.156;8.220;2023-06-04T08:19:12;21.60;54.80
7658;DHT22;8462;53.156;8.220;2023-06-04T08:21:39;21.40;54.90
7658;DHT22;8462;53.156;8.220;2023-06-04T08:24:08;21.20;56.20
7658;DHT22;8462;53.156;8.220;2023-06-04T08:26:35;21.10;56.30
7658;DHT22;8462;53.156;8.220;2023-06-04T08:29:03;21.10;55.80
7658;DHT22;8462;53.156;8.220;2023-06-04T08:31:32;21.00;56.00
7658;DHT22;8462;53.156;8.220;2023-06-04T08:33:59;21.00;57.00
7658;DHT22;8462;53.156;8.220;2023-06-04T08:36:27;21.10;57.80
7658;DHT22;8462;53.156;8.220;2023-06-04T08:38:54;21.20;56.80
7658;DHT22;8462;53.156;8.220;2023-06-04T08:41:26;21.20;56.40
7658;DHT22;8462;53.156;8.220;2023-06-04T08:43:55;21.30;57.20
7658;DHT22;8462;53.156;8.220;2023-06-04T08:46:23;21.30;57.30
7658;DHT22;8462;53.156;8.220;2023-06-04T08:48:52;21.40;57.10
7658;DHT22;8462;53.156;8.220;2023-06-04T08:51:21;21.40;57.00
7658;DHT22;8462;53.156;8.220;2023-06-04T08:53:48;21.50;56.50
7658;DHT22;8462;53.156;8.220;2023-06-04T08:56:16;21.60;56.80
7658;DHT22;8462;53.156;8.220;2023-06-04T08:58:44;21.70;57.50
7658;DHT22;8462;53.156;8.220;2023-06-04T09:01:11;21.80;56.60
7658;DHT22;8462;53.156;8.220;2023-06-04T09:03:38;21.90;55.90
7658;DHT22;8462;53.156;8.220;2023-06-04T09:06:07;22.00;54.70
7658;DHT22;8462;53.156;8.220;2023-06-04T09:08:37;22.10;54.30
7658;DHT22;8462;53.156;8.220;2023-06-04T09:11:08;22.10;54.60
7658;DHT22;8462;53.156;8.220;2023-06-04T09:13:37;22.20;52.40
7658;DHT22;8462;53.156;8.220;2023-06-04T09:16:05;22.20;52.30
7658;DHT22;8462;53.156;8.220;2023-06-04T09:18:32;22.30;51.00
7658;DHT22;8462;53.156;8.220;2023-06-04T09:21:03;22.40;52.10
7658;DHT22;8462;53.156;8.220;2023-06-04T09:23:34;22.50;51.20
7658;DHT22;8462;53.156;8.220;2023-06-04T09:26:08;22.70;50.90
7658;DHT22;8462;53.156;8.220;2023-06-04T09:28:35;22.90;49.40
7658;DHT22;8462;53.156;8.220;2023-06-04T09:31:02;22.90;48.50
7658;DHT22;8462;53.156;8.220;2023-06-04T09:33:29;23.00;48.80
7658;DHT22;8462;53.156;8.220;2023-06-04T09:35:57;23.10;48.50
7658;DHT22;8462;53.156;8.220;2023-06-04T09:38:34;23.20;49.30
7658;DHT22;8462;53.156;8.220;2023-06-04T09:41:02;23.40;49.50
7658;DHT22;8462;53.156;8.220;2023-06-04T09:43:32;23.40;49.50
7658;DHT22;8462;53.156;8.220;2023-06-04T09:46:09;23.30;50.40
7658;DHT22;8462;53.156;8.220;2023-06-04T09:48:36;23.30;50.80
7658;DHT22;8462;53.156;8.220;2023-06-04T09:51:07;23.50;51.20
7658;DHT22;8462;53.156;8.220;2023-06-04T09:53:35;23.60;50.60
7658;DHT22;8462;53.156;8.220;2023-06-04T09:56:03;23.70;50.70
7658;DHT22;8462;53.156;8.220;2023-06-04T09:58:32;23.70;51.50
7658;DHT22;8462;53.156;8.220;2023-06-04T10:01:00;23.90;52.90
7658;DHT22;8462;53.156;8.220;2023-06-04T10:03:30;24.00;52.80
7658;DHT22;8462;53.156;8.220;2023-06-04T10:06:00;24.00;52.10
7658;DHT22;8462;53.156;8.220;2023-06-04T10:08:29;24.10;54.00
7658;DHT22;8462;53.156;8.220;2023-06-04T10:10:59;24.10;54.60
7658;DHT22;8462;53.156;8.220;2023-06-04T10:13:28;24.20;54.90
7658;DHT22;8462;53.156;8.220;2023-06-04T10:15:57;24.40;53.20
7658;DHT22;8462;53.156;8.220;2023-06-04T10:18:27;24.40;54.40
7658;DHT22;8462;53.156;8.220;2023-06-04T10:20:55;24.20;54.30
7658;DHT22;8462;53.156;8.220;2023-06-04T10:23:23;23.90;55.60
7658;DHT22;8462;53.156;8.220;2023-06-04T10:25:51;23.80;55.10
7658;DHT22;8462;53.156;8.220;2023-06-04T10:28:22;23.70;55.00
7658;DHT22;8462;53.156;8.220;2023-06-04T10:30:50;23.80;55.40
7658;DHT22;8462;53.156;8.220;2023-06-04T10:33:18;23.80;55.30
7658;DHT22;8462;53.156;8.220;2023-06-04T10:35:50;23.80;55.20
7658;DHT22;8462;53.156;8.220;2023-06-04T10:38:17;23.80;55.10
7658;DHT22;8462;53.156;8.220;2023-06-04T10:40:44;23.50;55.90
7658;DHT22;8462;53.156;8.220;2023-06-04T10:43:12;23.40;57.10
7658;DHT22;8462;53.156;8.220;2023-06-04T10:45:43;23.50;57.30
7658;DHT22;8462;53.156;8.220;2023-06-04T10:48:11;23.60;56.50
7658;DHT22;8462;53.156;8.220;2023-06-04T10:50:48;23.60;56.00
7658;DHT22;8462;53.156;8.220;2023-06-04T10:53:16;23.70;56.50
7658;DHT22;8462;53.156;8.220;2023-06-04T10:55:44;23.80;56.70
7658;DHT22;8462;53.156;8.220;2023-06-04T10:58:11;23.80;55.70
7658;DHT22;8462;53.156;8.220;2023-06-04T11:00:38;23.80;55.20
7658;DHT22;8462;53.156;8.220;2023-06-04T11:03:09;23.70;55.40
7658;DHT22;8462;53.156;8.220;2023-06-04T11:05:36;23.40;55.00
7658;DHT22;8462;53.156;8.220;2023-06-04T11:08:04;23.30;56.10
7658;DHT22;8462;53.156;8.220;2023-06-04T11:10:32;23.30;56.20
7658;DHT22;8462;53.156;8.220;2023-06-04T11:13:00;23.30;56.10
7658;DHT22;8462;53.156;8.220;2023-06-04T11:15:27;23.30;55.50
7658;DHT22;8462;53.156;8.220;2023-06-04T11:18:03;23.30;55.50
7658;DHT22;8462;53.156;8.220;2023-06-04T11:20:32;23.40;54.00
7658;DHT22;8462;53.156;8.220;2023-06-04T11:22:59;23.40;54.60
7658;DHT22;8462;53.156;8.220;2023-06-04T11:25:29;23.50;54.60
7658;DHT22;8462;53.156;8.220;2023-06-04T11:27:59;23.60;55.00
7658;DHT22;8462;53.156;8.220;2023-06-04T11:30:27;23.60;54.00
7658;DHT22;8462;53.156;8.220;2023-06-04T11:33:01;23.60;53.90
7658;DHT22;8462;53.156;8.220;2023-06-04T11:35:28;23.40;53.80
7658;DHT22;8462;53.156;8.220;2023-06-04T11:37:58;23.20;53.60
7658;DHT22;8462;53.156;8.220;2023-06-04T11:40:25;23.10;54.20
7658;DHT22;8462;53.156;8.220;2023-06-04T11:42:53;23.00;55.60
7658;DHT22;8462;53.156;8.220;2023-06-04T11:45:22;23.00;54.20
7658;DHT22;8462;53.156;8.220;2023-06-04T11:47:50;23.10;54.20
7658;DHT22;8462;53.156;8.220;2023-06-04T11:50:17;23.20;53.30
7658;DHT22;8462;53.156;8.220;2023-06-04T11:52:44;23.20;52.70
7658;DHT22;8462;53.156;8.220;2023-06-04T11:55:13;23.00;52.70
7658;DHT22;8462;53.156;8.220;2023-06-04T11:57:41;23.00;52.40
7658;DHT22;8462;53.156;8.220;2023-06-04T12:00:09;23.00;52.80
7658;DHT22;8462;53.156;8.220;2023-06-04T12:02:37;23.10;52.30
7658;DHT22;8462;53.156;8.220;2023-06-04T12:05:13;23.10;52.40
7658;DHT22;8462;53.156;8.220;2023-06-04T12:07:40;23.10;52.80
7658;DHT22;8462;53.156;8.220;2023-06-04T12:10:08;23.00;52.70
7658;DHT22;8462;53.156;8.220;2023-06-04T12:12:38;22.80;53.00
7658;DHT22;8462;53.156;8.220;2023-06-04T12:15:08;22.90;52.90
7658;DHT22;8462;53.156;8.220;2023-06-04T12:17:35;22.90;52.80
7658;DHT22;8462;53.156;8.220;2023-06-04T12:20:05;22.90;52.30
7658;DHT22;8462;53.156;8.220;2023-06-04T12:22:34;22.80;53.00
7658;DHT22;8462;53.156;8.220;2023-06-04T12:25:10;22.90;52.80
7658;DHT22;8462;53.156;8.220;2023-06-04T12:27:46;22.80;51.70
7658;DHT22;8462;53.156;8.220;2023-06-04T12:30:13;22.70;52.00
7658;DHT22;8462;53.156;8.220;2023-06-04T12:32:41;22.70;52.50
7658;DHT22;8462;53.156;8.220;2023-06-04T12:35:09;22.70;53.00
7658;DHT22;8462;53.156;8.220;2023-06-04T12:37:36;22.80;52.80
7658;DHT22;8462;53.156;8.220;2023-06-04T12:40:05;22.90;52.10
7658;DHT22;8462;53.156;8.220;2023-06-04T12:42:33;23.00;51.40
7658;DHT22;8462;53.156;8.220;2023-06-04T12:45:09;23.00;50.90
7658;DHT22;8462;53.156;8.220;2023-06-04T12:47:36;23.00;51.20
7658;DHT22;8462;53.156;8.220;2023-06-04T12:50:03;23.00;50.70
7658;DHT22;8462;53.156;8.220;2023-06-04T12:52:31;22.90;50.40
7658;DHT22;8462;53.156;8.220;2023-06-04T12:54:58;22.90;50.90
7658;DHT22;8462;53.156;8.220;2023-06-04T12:57:24;23.00;49.50
7658;DHT22;8462;53.156;8.220;2023-06-04T12:59:52;22.80;49.30
7658;DHT22;8462;53.156;8.220;2023-06-04T13:02:21;22.80;49.70
7658;DHT22;8462;53.156;8.220;2023-06-04T13:04:48;22.90;50.20
7658;DHT22;8462;53.156;8.220;2023-06-04T13:07:18;23.00;49.60
7658;DHT22;8462;53.156;8.220;2023-06-04T13:09:45;23.10;48.40
7658;DHT22;8462;53.156;8.220;2023-06-04T13:12:12;23.00;48.20
7658;DHT22;8462;53.156;8.220;2023-06-04T13:14:39;22.90;47.50
7658;DHT22;8462;53.156;8.220;2023-06-04T13:17:06;22.80;47.60
7658;DHT22;8462;53.156;8.220;2023-06-04T13:19:35;22.70;47.80
7658;DHT22;8462;53.156;8.220;2023-06-04T13:22:08;22.70;46.40
7658;DHT22;8462;53.156;8.220;2023-06-04T13:24:43;22.70;47.70
7658;DHT22;8462;53.156;8.220;2023-06-04T13:27:10;22.80;48.00
7658;DHT22;8462;53.156;8.220;2023-06-04T13:29:40;22.70;47.90
7658;DHT22;8462;53.156;8.220;2023-06-04T13:32:09;22.60;47.10
7658;DHT22;8462;53.156;8.220;2023-06-04T13:34:38;22.60;47.80
7658;DHT22;8462;53.156;8.220;2023-06-04T13:37:22;22.50;48.60
7658;DHT22;8462;53.156;8.220;2023-06-04T13:39:57;22.50;48.90
7658;DHT22;8462;53.156;8.220;2023-06-04T13:42:24;22.50;47.90
7658;DHT22;8462;53.156;8.220;2023-06-04T13:44:51;22.40;47.80
7658;DHT22;8462;53.156;8.220;2023-06-04T13:47:19;22.50;47.80
7658;DHT22;8462;53.156;8.220;2023-06-04T13:49:49;22.50;48.20
7658;DHT22;8462;53.156;8.220;2023-06-04T13:52:17;22.50;48.50
7658;DHT22;8462;53.156;8.220;2023-06-04T13:54:44;22.40;48.50
7658;DHT22;8462;53.156;8.220;2023-06-04T13:57:12;22.40;49.00
7658;DHT22;8462;53.156;8.220;2023-06-04T13:59:40;22.40;48.00
7658;DHT22;8462;53.156;8.220;2023-06-04T14:02:15;22.30;48.70
7658;DHT22;8462;53.156;8.220;2023-06-04T14:04:52;22.40;48.50
7658;DHT22;8462;53.156;8.220;2023-06-04T14:07:22;22.30;48.70
7658;DHT22;8462;53.156;8.220;2023-06-04T14:09:49;22.20;49.40
7658;DHT22;8462;53.156;8.220;2023-06-04T14:12:26;22.20;49.70
7658;DHT22;8462;53.156;8.220;2023-06-04T14:14:54;22.30;50.10
7658;DHT22;8462;53.156;8.220;2023-06-04T14:17:38;22.30;49.00
7658;DHT22;8462;53.156;8.220;2023-06-04T14:20:09;22.10;48.50
7658;DHT22;8462;53.156;8.220;2023-06-04T14:22:38;22.00;49.10
7658;DHT22;8462;53.156;8.220;2023-06-04T14:25:07;21.90;49.00
7658;DHT22;8462;53.156;8.220;2023-06-04T14:27:35;21.90;50.20
7658;DHT22;8462;53.156;8.220;2023-06-04T14:30:03;21.80;50.70
7658;DHT22;8462;53.156;8.220;2023-06-04T14:32:33;21.80;50.90
7658;DHT22;8462;53.156;8.220;2023-06-04T14:35:03;21.70;52.10
7658;DHT22;8462;53.156;8.220;2023-06-04T14:37:48;21.60;53.50
7658;DHT22;8462;53.156;8.220;2023-06-04T14:40:21;21.70;53.10
7658;DHT22;8462;53.156;8.220;2023-06-04T14:42:50;21.80;53.40
7658;DHT22;8462;53.156;8.220;2023-06-04T14:45:19;21.70;53.00
7658;DHT22;8462;53.156;8.220;2023-06-04T14:47:51;21.50;53.60
7658;DHT22;8462;53.156;8.220;2023-06-04T14:50:18;21.50;54.40
7658;DHT22;8462;53.156;8.220;2023-06-04T14:52:46;21.50;55.30
7658;DHT22;8462;53.156;8.220;2023-06-04T14:55:13;21.50;54.60
7658;DHT22;8462;53.156;8.220;2023-06-04T14:57:40;21.40;54.50
7658;DHT22;8462;53.156;8.220;2023-06-04T15:00:07;21.30;55.20
7658;DHT22;8462;53.156;8.220;2023-06-04T15:02:34;21.10;55.60
7658;DHT22;8462;53.156;8.220;2023-06-04T15:05:01;21.00;56.00
7658;DHT22;8462;53.156;8.220;2023-06-04T15:07:29;20.90;55.70
7658;DHT22;8462;53.156;8.220;2023-06-04T15:09:57;20.80;56.70
7658;DHT22;8462;53.156;8.220;2023-06-04T15:12:24;20.90;56.40
7658;DHT22;8462;53.156;8.220;2023-06-04T15:14:51;20.80;55.10
7658;DHT22;8462;53.156;8.220;2023-06-04T15:17:17;20.80;56.20
7658;DHT22;8462;53.156;8.220;2023-06-04T15:19:44;20.70;57.00
7658;DHT22;8462;53.156;8.220;2023-06-04T15:22:11;20.60;57.60
7658;DHT22;8462;53.156;8.220;2023-06-04T15:24:38;20.40;57.40
7658;DHT22;8462;53.156;8.220;2023-06-04T15:27:06;20.30;58.20
7658;DHT22;8462;53.156;8.220;2023-06-04T15:29:33;20.40;58.50
7658;DHT22;8462;53.156;8.220;2023-06-04T15:32:00;20.40;58.70
7658;DHT22;8462;53.156;8.220;2023-06-04T15:34:27;20.30;59.20
7658;DHT22;8462;53.156;8.220;2023-06-04T15:36:54;20.20;60.00
7658;DHT22;8462;53.156;8.220;2023-06-04T15:39:21;20.10;59.40
7658;DHT22;8462;53.156;8.220;2023-06-04T15:41:48;20.20;59.90
7658;DHT22;8462;53.156;8.220;2023-06-04T15:44:16;20.30;60.40
7658;DHT22;8462;53.156;8.220;2023-06-04T15:46:43;20.30;60.70
7658;DHT22;8462;53.156;8.220;2023-06-04T15:49:10;20.30;61.50
7658;DHT22;8462;53.156;8.220;2023-06-04T15:51:37;20.30;62.80
7658;DHT22;8462;53.156;8.220;2023-06-04T15:54:04;20.30;63.90
7658;DHT22;8462;53.156;8.220;2023-06-04T15:56:31;20.30;63.40
7658;DHT22;8462;53.156;8.220;2023-06-04T15:58:58;20.20;63.90
7658;DHT22;8462;53.156;8.220;2023-06-04T16:01:27;20.00;64.40
7658;DHT22;8462;53.156;8.220;2023-06-04T16:03:54;19.90;65.20
7658;DHT22;8462;53.156;8.220;2023-06-04T16:06:21;19.80;66.30
7658;DHT22;8462;53.156;8.220;2023-06-04T16:08:48;19.70;68.10
7658;DHT22;8462;53.156;8.220;2023-06-04T16:11:16;19.60;67.70